sensor_id;sensor_type;location;lat;lon;timestamp;P1;durP1;ratioP1;P2;durP2;ratioP2
18286;SDS011;9269;50.838;12.094;2023-05-07T00:00:13;17.90;;;15.47;;
18286;SDS011;9269;50.838;12.094;2023-05-07T00:02:47;17.67;;;15.70;;
18286;SDS011;9269;50.838;12.094;2023-05-07T00:05:16;18.23;;;15.40;;
18286;SDS011;9269;50.838;12.094;2023-05-07T00:07:49;16.57;;;14.47;;
18286;SDS011;9269;50.838;12.094;2023-05-07T00:10:25;19.93;;;15.23;;
18286;SDS011;9269;50.838;12.094;2023-05-07T00:13:00;20.00;;;15.50;;
18286;SDS011;9269;50.838;12.094;2023-05-07T00:15:48;16.87;;;14.60;;
18286;SDS011;9269;50.838;12.094;2023-05-07T00:18:22;18.67;;;16.67;;
18286;SDS011;9269;50.838;12.094;2023-05-07T00:20:54;17.57;;;15.67;;
18286;SDS011;9269;50.838;12.094;2023-05-07T00:23:32;20.70;;;17.10;;
18286;SDS011;9269;50.838;12.094;2023-05-07T00:26:05;18.00;;;15.90;;
18286;SDS011;9269;50.838;12.094;2023-05-07T00:28:38;19.87;;;17.37;;
18286;SDS011;9269;50.838;12.094;2023-05-07T00:31:16;18.30;;;16.40;;
18286;SDS011;9269;50.838;12.094;2023-05-07T00:33:51;18.70;;;16.27;;
18286;SDS011;9269;50.838;12.094;2023-05-07T00:36:27;17.20;;;15.30;;
18286;SDS011;9269;50.838;12.094;2023-05-07T00:38:58;17.17;;;15.37;;
18286;SDS011;9269;50.838;12.094;2023-05-07T00:41:35;16.93;;;15.13;;
18286;SDS011;9269;50.838;12.094;2023-05-07T00:44:14;16.20;;;14.50;;
18286;SDS011;9269;50.838;12.094;2023-05-07T00:46:50;17.27;;;15.10;;
18286;SDS011;9269;50.838;12.094;2023-05-07T00:49:21;16.30;;;14.53;;
18286;SDS011;9269;50.838;12.094;2023-05-07T00:51:57;15.13;;;13.47;;
18286;SDS011;9269;50.838;12.094;2023-05-07T00:54:29;14.30;;;12.77;;
18286;SDS011;9269;50.838;12.094;2023-05-07T00:56:59;15.77;;;13.00;;
18286;SDS011;9269;50.838;12.094;2023-05-07T00:59:35;12.87;;;11.47;;
18286;SDS011;9269;50.838;12.094;2023-05-07T01:02:12;14.13;;;12.73;;
18286;SDS011;9269;50.838;12.094;2023-05-07T01:04:42;13.90;;;12.40;;
18286;SDS011;9269;50.838;12.094;2023-05-07T01:07:21;12.97;;;11.03;;
18286;SDS011;9269;50.838;12.094;2023-05-07T01:09:58;14.77;;;12.50;;
18286;SDS011;9269;50.838;12.094;2023-05-07T01:12:28;13.40;;;12.00;;
18286;SDS011;9269;50.838;12.094;2023-05-07T01:15:09;12.87;;;11.53;;
18286;SDS011;9269;50.838;12.094;2023-05-07T01:17:44;11.77;;;10.57;;
18286;SDS011;9269;50.838;12.094;2023-05-07T01:20:16;13.00;;;11.13;;
18286;SDS011;9269;50.838;12.094;2023-05-07T01:22:56;13.30;;;11.07;;
18286;SDS011;9269;50.838;12.094;2023-05-07T01:25:31;13.00;;;11.60;;
18286;SDS011;9269;50.838;12.094;2023-05-07T01:28:03;12.63;;;11.30;;
18286;SDS011;9269;50.838;12.094;2023-05-07T01:30:35;12.20;;;10.87;;
18286;SDS011;9269;50.838;12.094;2023-05-07T01:33:09;12.20;;;11.00;;
18286;SDS011;9269;50.838;12.094;2023-05-07T01:35:45;12.03;;;10.70;;
18286;SDS011;9269;50.838;12.094;2023-05-07T01:38:37;11.20;;;10.10;;
18286;SDS011;9269;50.838;12.094;2023-05-07T01:41:10;12.70;;;10.60;;
18286;SDS011;9269;50.838;12.094;2023-05-07T01:43:42;12.13;;;10.83;;
18286;SDS011;9269;50.838;12.094;2023-05-07T01:46:16;11.60;;;10.40;;
18286;SDS011;9269;50.838;12.094;2023-05-07T01:48:54;12.37;;;10.13;;
18286;SDS011;9269;50.838;12.094;2023-05-07T01:51:28;10.30;;;9.30;;
18286;SDS011;9269;50.838;12.094;2023-05-07T01:54:03;10.77;;;9.60;;
18286;SDS011;9269;50.838;12.094;2023-05-07T01:56:35;11.70;;;9.27;;
18286;SDS011;9269;50.838;12.094;2023-05-07T01:59:16;10.80;;;9.67;;
18286;SDS011;9269;50.838;12.094;2023-05-07T02:01:47;10.87;;;9.77;;
18286;SDS011;9269;50.838;12.094;2023-05-07T02:04:21;11.83;;;9.97;;
18286;SDS011;9269;50.838;12.094;2023-05-07T02:06:52;10.67;;;9.60;;
18286;SDS011;9269;50.838;12.094;2023-05-07T02:09:24;11.43;;;10.10;;
18286;SDS011;9269;50.838;12.094;2023-05-07T02:11:58;10.77;;;9.67;;
18286;SDS011;9269;50.838;12.094;2023-05-07T02:14:32;11.70;;;10.23;;
18286;SDS011;9269;50.838;12.094;2023-05-07T02:17:05;10.90;;;9.90;;
18286;SDS011;9269;50.838;12.094;2023-05-07T02:19:53;12.30;;;10.93;;
18286;SDS011;9269;50.838;12.094;2023-05-07T02:22:24;10.63;;;9.53;;
18286;SDS011;9269;50.838;12.094;2023-05-07T02:25:00;11.63;;;10.43;;
18286;SDS011;9269;50.838;12.094;2023-05-07T02:27:34;12.93;;;11.07;;
18286;SDS011;9269;50.838;12.094;2023-05-07T02:30:09;10.77;;;9.67;;
18286;SDS011;9269;50.838;12.094;2023-05-07T02:32:41;11.33;;;10.13;;
18286;SDS011;9269;50.838;12.094;2023-05-07T02:35:16;12.53;;;11.23;;
18286;SDS011;9269;50.838;12.094;2023-05-07T02:37:53;12.10;;;10.80;;
18286;SDS011;9269;50.838;12.094;2023-05-07T02:40:42;13.47;;;11.80;;
18286;SDS011;9269;50.838;12.094;2023-05-07T02:43:11;11.90;;;10.70;;
18286;SDS011;9269;50.838;12.094;2023-05-07T02:45:43;13.27;;;11.17;;
18286;SDS011;9269;50.838;12.094;2023-05-07T02:48:15;14.00;;;12.50;;
18286;SDS011;9269;50.838;12.094;2023-05-07T02:50:48;14.03;;;12.53;;
18286;SDS011;9269;50.838;12.094;2023-05-07T02:53:18;13.73;;;11.43;;
18286;SDS011;9269;50.838;12.094;2023-05-07T02:55:52;14.10;;;12.13;;
18286;SDS011;9269;50.838;12.094;2023-05-07T02:58:21;14.17;;;12.70;;
18286;SDS011;9269;50.838;12.094;2023-05-07T03:00:53;14.63;;;13.23;;
18286;SDS011;9269;50.838;12.094;2023-05-07T03:03:26;18.97;;;15.93;;
18286;SDS011;9269;50.838;12.094;2023-05-07T03:05:58;17.13;;;15.33;;
18286;SDS011;9269;50.838;12.094;2023-05-07T03:08:34;15.57;;;13.57;;
18286;SDS011;9269;50.838;12.094;2023-05-07T03:11:08;17.67;;;15.77;;
18286;SDS011;9269;50.838;12.094;2023-05-07T03:13:40;18.40;;;16.47;;
18286;SDS011;9269;50.838;12.094;2023-05-07T03:16:15;18.37;;;16.47;;
18286;SDS011;9269;50.838;12.094;2023-05-07T03:18:47;18.90;;;16.70;;
18286;SDS011;9269;50.838;12.094;2023-05-07T03:21:23;18.87;;;16.87;;
18286;SDS011;9269;50.838;12.094;2023-05-07T03:24:01;19.27;;;17.03;;
18286;SDS011;9269;50.838;12.094;2023-05-07T03:26:38;19.27;;;17.17;;
18286;SDS011;9269;50.838;12.094;2023-05-07T03:29:13;19.03;;;16.93;;
18286;SDS011;9269;50.838;12.094;2023-05-07T03:31:49;21.10;;;17.63;;
18286;SDS011;9269;50.838;12.094;2023-05-07T03:34:22;18.47;;;16.20;;
18286;SDS011;9269;50.838;12.094;2023-05-07T03:36:56;19.57;;;16.57;;
18286;SDS011;9269;50.838;12.094;2023-05-07T03:39:30;18.87;;;16.47;;
18286;SDS011;9269;50.838;12.094;2023-05-07T03:42:06;17.47;;;15.57;;
18286;SDS011;9269;50.838;12.094;2023-05-07T03:44:40;17.70;;;15.50;;
18286;SDS011;9269;50.838;12.094;2023-05-07T03:47:20;19.00;;;15.50;;
18286;SDS011;9269;50.838;12.094;2023-05-07T03:49:58;18.17;;;15.37;;
18286;SDS011;9269;50.838;12.094;2023-05-07T03:52:33;17.37;;;14.87;;
18286;SDS011;9269;50.838;12.094;2023-05-07T03:55:08;18.77;;;14.97;;
18286;SDS011;9269;50.838;12.094;2023-05-07T03:57:44;16.83;;;15.00;;
18286;SDS011;9269;50.838;12.094;2023-05-07T04:00:18;17.17;;;14.93;;
18286;SDS011;9269;50.838;12.094;2023-05-07T04:02:57;17.43;;;15.63;;
18286;SDS011;9269;50.838;12.094;2023-05-07T04:05:31;16.37;;;14.27;;
18286;SDS011;9269;50.838;12.094;2023-05-07T04:08:03;17.13;;;14.80;;
18286;SDS011;9269;50.838;12.094;2023-05-07T04:10:35;16.73;;;14.17;;
18286;SDS011;9269;50.838;12.094;2023-05-07T04:13:09;18.07;;;14.53;;
18286;SDS011;9269;50.838;12.094;2023-05-07T04:15:42;16.00;;;14.40;;
18286;SDS011;9269;50.838;12.094;2023-05-07T04:18:16;16.60;;;14.37;;
18286;SDS011;9269;50.838;12.094;2023-05-07T04:20:46;16.77;;;14.97;;
18286;SDS011;9269;50.838;12.094;2023-05-07T04:23:20;16.77;;;15.07;;
18286;SDS011;9269;50.838;12.094;2023-05-07T04:25:50;15.60;;;13.83;;
18286;SDS011;9269;50.838;12.094;2023-05-07T04:28:22;17.27;;;15.13;;
18286;SDS011;9269;50.838;12.094;2023-05-07T04:30:55;18.93;;;14.80;;
18286;SDS011;9269;50.838;12.094;2023-05-07T04:33:30;17.13;;;14.63;;
18286;SDS011;9269;50.838;12.094;2023-05-07T04:36:01;17.97;;;16.07;;
18286;SDS011;9269;50.838;12.094;2023-05-07T04:38:39;17.97;;;14.90;;
18286;SDS011;9269;50.838;12.094;2023-05-07T04:41:15;17.63;;;14.73;;
18286;SDS011;9269;50.838;12.094;2023-05-07T04:43:48;18.13;;;16.17;;
18286;SDS011;9269;50.838;12.094;2023-05-07T04:46:24;19.17;;;16.23;;
18286;SDS011;9269;50.838;12.094;2023-05-07T04:48:57;21.00;;;17.00;;
18286;SDS011;9269;50.838;12.094;2023-05-07T04:51:27;20.23;;;16.87;;
18286;SDS011;9269;50.838;12.094;2023-05-07T04:54:15;20.00;;;17.03;;
18286;SDS011;9269;50.838;12.094;2023-05-07T04:56:47;20.17;;;17.43;;
18286;SDS011;9269;50.838;12.094;2023-05-07T04:59:20;20.63;;;17.93;;
18286;SDS011;9269;50.838;12.094;2023-05-07T05:01:49;20.57;;;17.97;;
18286;SDS011;9269;50.838;12.094;2023-05-07T05:04:18;20.20;;;17.57;;
18286;SDS011;9269;50.838;12.094;2023-05-07T05:06:54;20.73;;;17.43;;
18286;SDS011;9269;50.838;12.094;2023-05-07T05:09:27;22.43;;;18.23;;
18286;SDS011;9269;50.838;12.094;2023-05-07T05:12:04;20.57;;;17.67;;
18286;SDS011;9269;50.838;12.094;2023-05-07T05:14:41;20.37;;;17.37;;
18286;SDS011;9269;50.838;12.094;2023-05-07T05:17:14;21.00;;;18.30;;
18286;SDS011;9269;50.838;12.094;2023-05-07T05:19:45;20.10;;;16.90;;
18286;SDS011;9269;50.838;12.094;2023-05-07T05:22:15;18.90;;;16.30;;
18286;SDS011;9269;50.838;12.094;2023-05-07T05:24:45;18.83;;;16.37;;
18286;SDS011;9269;50.838;12.094;2023-05-07T05:27:20;19.90;;;16.53;;
18286;SDS011;9269;50.838;12.094;2023-05-07T05:29:56;19.73;;;16.40;;
18286;SDS011;9269;50.838;12.094;2023-05-07T05:32:32;21.37;;;17.03;;
18286;SDS011;9269;50.838;12.094;2023-05-07T05:35:05;18.03;;;15.60;;
18286;SDS011;9269;50.838;12.094;2023-05-07T05:37:37;18.60;;;16.37;;
18286;SDS011;9269;50.838;12.094;2023-05-07T05:40:11;17.60;;;15.67;;
18286;SDS011;9269;50.838;12.094;2023-05-07T05:42:44;19.07;;;16.77;;
18286;SDS011;9269;50.838;12.094;2023-05-07T05:45:15;18.40;;;16.40;;
18286;SDS011;9269;50.838;12.094;2023-05-07T05:47:49;19.20;;;16.93;;
18286;SDS011;9269;50.838;12.094;2023-05-07T05:50:21;18.27;;;16.27;;
18286;SDS011;9269;50.838;12.094;2023-05-07T05:52:50;21.43;;;16.83;;
18286;SDS011;9269;50.838;12.094;2023-05-07T05:55:20;17.40;;;15.27;;
18286;SDS011;9269;50.838;12.094;2023-05-07T05:57:58;17.67;;;15.77;;
18286;SDS011;9269;50.838;12.094;2023-05-07T06:00:33;17.37;;;15.57;;
18286;SDS011;9269;50.838;12.094;2023-05-07T06:03:05;18.17;;;16.00;;
18286;SDS011;9269;50.838;12.094;2023-05-07T06:05:41;18.13;;;15.60;;
18286;SDS011;9269;50.838;12.094;2023-05-07T06:08:17;16.97;;;15.10;;
18286;SDS011;9269;50.838;12.094;2023-05-07T06:10:53;16.93;;;15.07;;
18286;SDS011;9269;50.838;12.094;2023-05-07T06:13:28;17.03;;;14.73;;
18286;SDS011;9269;50.838;12.094;2023-05-07T06:15:58;17.80;;;15.90;;
18286;SDS011;9269;50.838;12.094;2023-05-07T06:18:31;16.30;;;13.87;;
18286;SDS011;9269;50.838;12.094;2023-05-07T06:21:06;16.10;;;14.23;;
18286;SDS011;9269;50.838;12.094;2023-05-07T06:23:42;18.97;;;15.50;;
18286;SDS011;9269;50.838;12.094;2023-05-07T06:26:17;16.83;;;14.60;;
18286;SDS011;9269;50.838;12.094;2023-05-07T06:28:53;18.17;;;15.17;;
18286;SDS011;9269;50.838;12.094;2023-05-07T06:31:29;16.20;;;14.50;;
18286;SDS011;9269;50.838;12.094;2023-05-07T06:34:02;17.77;;;15.80;;
18286;SDS011;9269;50.838;12.094;2023-05-07T06:36:32;16.93;;;15.07;;
18286;SDS011;9269;50.838;12.094;2023-05-07T06:39:04;17.07;;;14.20;;
18286;SDS011;9269;50.838;12.094;2023-05-07T06:41:40;18.13;;;14.50;;
18286;SDS011;9269;50.838;12.094;2023-05-07T06:44:14;16.50;;;14.83;;
18286;SDS011;9269;50.838;12.094;2023-05-07T06:46:47;16.20;;;14.03;;
18286;SDS011;9269;50.838;12.094;2023-05-07T06:49:16;18.70;;;15.53;;
18286;SDS011;9269;50.838;12.094;2023-05-07T06:51:48;17.37;;;15.57;;
18286;SDS011;9269;50.838;12.094;2023-05-07T06:54:24;21.53;;;15.63;;
18286;SDS011;9269;50.838;12.094;2023-05-07T06:57:01;18.83;;;16.80;;
18286;SDS011;9269;50.838;12.094;2023-05-07T06:59:49;18.60;;;16.70;;
18286;SDS011;9269;50.838;12.094;2023-05-07T07:05:07;18.40;;;15.87;;
18286;SDS011;9269;50.838;12.094;2023-05-07T07:07:39;17.87;;;15.97;;
18286;SDS011;9269;50.838;12.094;2023-05-07T07:10:18;17.83;;;16.03;;
18286;SDS011;9269;50.838;12.094;2023-05-07T07:12:53;16.67;;;14.40;;
18286;SDS011;9269;50.838;12.094;2023-05-07T07:15:31;15.97;;;13.73;;
18286;SDS011;9269;50.838;12.094;2023-05-07T07:18:07;16.10;;;14.40;;
18286;SDS011;9269;50.838;12.094;2023-05-07T07:20:50;16.50;;;13.77;;
18286;SDS011;9269;50.838;12.094;2023-05-07T07:23:19;15.47;;;13.70;;
18286;SDS011;9269;50.838;12.094;2023-05-07T07:25:54;16.07;;;13.37;;
18286;SDS011;9269;50.838;12.094;2023-05-07T07:28:34;16.53;;;14.53;;
18286;SDS011;9269;50.838;12.094;2023-05-07T07:31:09;17.43;;;14.53;;
18286;SDS011;9269;50.838;12.094;2023-05-07T07:33:52;16.17;;;14.43;;
18286;SDS011;9269;50.838;12.094;2023-05-07T07:36:32;15.00;;;13.20;;
18286;SDS011;9269;50.838;12.094;2023-05-07T07:39:13;15.90;;;13.60;;
18286;SDS011;9269;50.838;12.094;2023-05-07T07:41:50;14.03;;;12.53;;
18286;SDS011;9269;50.838;12.094;2023-05-07T07:44:20;13.83;;;12.33;;
18286;SDS011;9269;50.838;12.094;2023-05-07T07:46:54;14.53;;;12.23;;
18286;SDS011;9269;50.838;12.094;2023-05-07T07:49:25;14.17;;;12.17;;
18286;SDS011;9269;50.838;12.094;2023-05-07T07:52:01;15.17;;;13.20;;
18286;SDS011;9269;50.838;12.094;2023-05-07T07:54:33;15.10;;;13.10;;
18286;SDS011;9269;50.838;12.094;2023-05-07T07:57:04;13.27;;;11.77;;
18286;SDS011;9269;50.838;12.094;2023-05-07T07:59:39;14.37;;;12.83;;
18286;SDS011;9269;50.838;12.094;2023-05-07T08:02:14;15.00;;;13.33;;
18286;SDS011;9269;50.838;12.094;2023-05-07T08:04:47;15.10;;;13.50;;
18286;SDS011;9269;50.838;12.094;2023-05-07T08:07:32;14.87;;;13.17;;
18286;SDS011;9269;50.838;12.094;2023-05-07T08:10:06;14.13;;;12.67;;
18286;SDS011;9269;50.838;12.094;2023-05-07T08:12:55;16.23;;;13.80;;
18286;SDS011;9269;50.838;12.094;2023-05-07T08:15:27;15.23;;;13.47;;
18286;SDS011;9269;50.838;12.094;2023-05-07T08:18:00;14.50;;;13.00;;
18286;SDS011;9269;50.838;12.094;2023-05-07T08:20:34;15.47;;;13.63;;
18286;SDS011;9269;50.838;12.094;2023-05-07T08:23:13;17.33;;;14.20;;
18286;SDS011;9269;50.838;12.094;2023-05-07T08:25:48;16.03;;;14.40;;
18286;SDS011;9269;50.838;12.094;2023-05-07T08:28:26;16.83;;;15.03;;
18286;SDS011;9269;50.838;12.094;2023-05-07T08:31:03;15.63;;;14.13;;
18286;SDS011;9269;50.838;12.094;2023-05-07T08:33:38;16.10;;;14.40;;
18286;SDS011;9269;50.838;12.094;2023-05-07T08:36:10;15.77;;;13.73;;
18286;SDS011;9269;50.838;12.094;2023-05-07T08:38:53;16.00;;;14.30;;
18286;SDS011;9269;50.838;12.094;2023-05-07T08:41:40;15.17;;;13.57;;
18286;SDS011;9269;50.838;12.094;2023-05-07T08:44:15;14.57;;;13.00;;
18286;SDS011;9269;50.838;12.094;2023-05-07T08:46:49;14.60;;;12.40;;
18286;SDS011;9269;50.838;12.094;2023-05-07T08:49:32;14.13;;;12.70;;
18286;SDS011;9269;50.838;12.094;2023-05-07T08:52:13;14.17;;;12.67;;
18286;SDS011;9269;50.838;12.094;2023-05-07T08:54:46;14.60;;;12.83;;
18286;SDS011;9269;50.838;12.094;2023-05-07T08:57:19;13.83;;;12.33;;
18286;SDS011;9269;50.838;12.094;2023-05-07T09:00:00;13.93;;;12.43;;
18286;SDS011;9269;50.838;12.094;2023-05-07T09:02:33;14.20;;;11.97;;
18286;SDS011;9269;50.838;12.094;2023-05-07T09:05:17;13.03;;;11.63;;
18286;SDS011;9269;50.838;12.094;2023-05-07T09:07:50;12.00;;;10.80;;
18286;SDS011;9269;50.838;12.094;2023-05-07T09:10:28;12.97;;;11.57;;
18286;SDS011;9269;50.838;12.094;2023-05-07T09:13:05;13.67;;;11.70;;
18286;SDS011;9269;50.838;12.094;2023-05-07T09:15:40;12.30;;;11.00;;
18286;SDS011;9269;50.838;12.094;2023-05-07T09:18:10;13.43;;;12.03;;
18286;SDS011;9269;50.838;12.094;2023-05-07T09:20:44;13.17;;;11.83;;
18286;SDS011;9269;50.838;12.094;2023-05-07T09:23:16;12.13;;;10.90;;
18286;SDS011;9269;50.838;12.094;2023-05-07T09:25:46;13.00;;;11.70;;
18286;SDS011;9269;50.838;12.094;2023-05-07T09:28:23;13.53;;;12.13;;
18286;SDS011;9269;50.838;12.094;2023-05-07T09:31:03;11.60;;;10.40;;
18286;SDS011;9269;50.838;12.094;2023-05-07T09:33:36;13.03;;;11.73;;
18286;SDS011;9269;50.838;12.094;2023-05-07T09:36:12;14.17;;;12.77;;
18286;SDS011;9269;50.838;12.094;2023-05-07T09:38:49;14.07;;;12.67;;
18286;SDS011;9269;50.838;12.094;2023-05-07T09:41:21;14.30;;;12.87;;
18286;SDS011;9269;50.838;12.094;2023-05-07T09:44:03;14.17;;;12.77;;
18286;SDS011;9269;50.838;12.094;2023-05-07T09:46:51;13.53;;;11.90;;
18286;SDS011;9269;50.838;12.094;2023-05-07T09:49:24;12.53;;;11.23;;
18286;SDS011;9269;50.838;12.094;2023-05-07T09:52:03;13.00;;;11.70;;
18286;SDS011;9269;50.838;12.094;2023-05-07T09:54:47;12.70;;;11.40;;
18286;SDS011;9269;50.838;12.094;2023-05-07T09:57:26;13.20;;;11.90;;
18286;SDS011;9269;50.838;12.094;2023-05-07T09:59:57;13.17;;;11.77;;
18286;SDS011;9269;50.838;12.094;2023-05-07T10:02:30;12.20;;;11.00;;
18286;SDS011;9269;50.838;12.094;2023-05-07T10:05:09;13.63;;;12.23;;
18286;SDS011;9269;50.838;12.094;2023-05-07T10:07:41;12.50;;;10.60;;
18286;SDS011;9269;50.838;12.094;2023-05-07T10:10:14;12.53;;;11.23;;
18286;SDS011;9269;50.838;12.094;2023-05-07T10:12:45;11.57;;;10.47;;
18286;SDS011;9269;50.838;12.094;2023-05-07T10:15:20;12.27;;;11.07;;
18286;SDS011;9269;50.838;12.094;2023-05-07T10:17:53;11.37;;;10.27;;
18286;SDS011;9269;50.838;12.094;2023-05-07T10:20:33;11.20;;;9.73;;
18286;SDS011;9269;50.838;12.094;2023-05-07T10:23:14;11.43;;;10.23;;
18286;SDS011;9269;50.838;12.094;2023-05-07T10:25:53;11.33;;;10.23;;
18286;SDS011;9269;50.838;12.094;2023-05-07T10:28:38;11.10;;;9.90;;
18286;SDS011;9269;50.838;12.094;2023-05-07T10:31:36;10.80;;;9.70;;
18286;SDS011;9269;50.838;12.094;2023-05-07T10:34:32;9.40;;;8.50;;
18286;SDS011;9269;50.838;12.094;2023-05-07T10:37:07;9.50;;;8.60;;
18286;SDS011;9269;50.838;12.094;2023-05-07T10:39:43;9.80;;;8.90;;
18286;SDS011;9269;50.838;12.094;2023-05-07T10:42:27;11.37;;;9.40;;
18286;SDS011;9269;50.838;12.094;2023-05-07T10:45:12;10.53;;;9.60;;
18286;SDS011;9269;50.838;12.094;2023-05-07T10:51:20;10.80;;;9.77;;
18286;SDS011;9269;50.838;12.094;2023-05-07T10:56:58;10.70;;;9.70;;
18286;SDS011;9269;50.838;12.094;2023-05-07T11:03:22;10.13;;;9.13;;
18286;SDS011;9269;50.838;12.094;2023-05-07T11:06:09;9.83;;;8.87;;
18286;SDS011;9269;50.838;12.094;2023-05-07T11:08:52;9.77;;;8.80;;
18286;SDS011;9269;50.838;12.094;2023-05-07T11:11:45;9.80;;;8.80;;
18286;SDS011;9269;50.838;12.094;2023-05-07T11:17:18;9.27;;;8.43;;
18286;SDS011;9269;50.838;12.094;2023-05-07T11:19:52;8.60;;;7.87;;
18286;SDS011;9269;50.838;12.094;2023-05-07T11:22:36;9.53;;;8.63;;
18286;SDS011;9269;50.838;12.094;2023-05-07T11:25:08;9.30;;;8.40;;
18286;SDS011;9269;50.838;12.094;2023-05-07T11:27:55;9.13;;;8.33;;
18286;SDS011;9269;50.838;12.094;2023-05-07T11:30:37;8.37;;;7.60;;
18286;SDS011;9269;50.838;12.094;2023-05-07T11:33:12;9.87;;;9.07;;
18286;SDS011;9269;50.838;12.094;2023-05-07T11:35:55;9.70;;;8.87;;
18286;SDS011;9269;50.838;12.094;2023-05-07T11:38:29;8.90;;;8.20;;
18286;SDS011;9269;50.838;12.094;2023-05-07T11:41:08;9.33;;;8.47;;
18286;SDS011;9269;50.838;12.094;2023-05-07T11:43:55;10.00;;;9.10;;
18286;SDS011;9269;50.838;12.094;2023-05-07T11:46:30;9.73;;;8.87;;
18286;SDS011;9269;50.838;12.094;2023-05-07T11:49:17;9.77;;;8.90;;
18286;SDS011;9269;50.838;12.094;2023-05-07T11:52:05;9.07;;;8.27;;
18286;SDS011;9269;50.838;12.094;2023-05-07T11:54:48;9.70;;;8.80;;
18286;SDS011;9269;50.838;12.094;2023-05-07T11:57:22;10.30;;;9.40;;
18286;SDS011;9269;50.838;12.094;2023-05-07T11:59:59;10.00;;;9.20;;
18286;SDS011;9269;50.838;12.094;2023-05-07T12:02:37;8.90;;;8.10;;
18286;SDS011;9269;50.838;12.094;2023-05-07T12:05:14;8.57;;;7.77;;
18286;SDS011;9269;50.838;12.094;2023-05-07T12:07:58;8.13;;;7.43;;
18286;SDS011;9269;50.838;12.094;2023-05-07T12:10:47;8.70;;;7.90;;
18286;SDS011;9269;50.838;12.094;2023-05-07T12:13:26;8.77;;;7.97;;
18286;SDS011;9269;50.838;12.094;2023-05-07T12:16:11;7.63;;;7.03;;
18286;SDS011;9269;50.838;12.094;2023-05-07T12:18:49;8.23;;;7.50;;
18286;SDS011;9269;50.838;12.094;2023-05-07T12:21:39;8.13;;;7.43;;
18286;SDS011;9269;50.838;12.094;2023-05-07T12:24:18;8.80;;;8.00;;
18286;SDS011;9269;50.838;12.094;2023-05-07T12:26:50;7.40;;;6.80;;
18286;SDS011;9269;50.838;12.094;2023-05-07T12:29:25;8.00;;;7.20;;
18286;SDS011;9269;50.838;12.094;2023-05-07T12:32:12;7.83;;;7.20;;
18286;SDS011;9269;50.838;12.094;2023-05-07T12:34:52;8.10;;;7.23;;
18286;SDS011;9269;50.838;12.094;2023-05-07T12:37:31;8.10;;;7.47;;
18286;SDS011;9269;50.838;12.094;2023-05-07T12:40:08;7.33;;;6.67;;
18286;SDS011;9269;50.838;12.094;2023-05-07T12:42:44;7.23;;;6.63;;
18286;SDS011;9269;50.838;12.094;2023-05-07T12:45:24;7.20;;;6.70;;
18286;SDS011;9269;50.838;12.094;2023-05-07T12:48:01;7.53;;;6.90;;
18286;SDS011;9269;50.838;12.094;2023-05-07T12:50:40;7.13;;;6.57;;
18286;SDS011;9269;50.838;12.094;2023-05-07T12:53:17;7.60;;;7.00;;
18286;SDS011;9269;50.838;12.094;2023-05-07T12:56:00;7.80;;;7.20;;
18286;SDS011;9269;50.838;12.094;2023-05-07T12:58:34;7.13;;;6.43;;
18286;SDS011;9269;50.838;12.094;2023-05-07T13:01:17;7.57;;;6.87;;
18286;SDS011;9269;50.838;12.094;2023-05-07T13:04:05;7.03;;;6.43;;
18286;SDS011;9269;50.838;12.094;2023-05-07T13:06:44;7.57;;;6.97;;
18286;SDS011;9269;50.838;12.094;2023-05-07T13:09:18;6.37;;;5.87;;
18286;SDS011;9269;50.838;12.094;2023-05-07T13:11:54;6.40;;;5.90;;
18286;SDS011;9269;50.838;12.094;2023-05-07T13:14:41;7.10;;;6.50;;
18286;SDS011;9269;50.838;12.094;2023-05-07T13:17:19;6.97;;;6.47;;
18286;SDS011;9269;50.838;12.094;2023-05-07T13:19:57;7.10;;;6.50;;
18286;SDS011;9269;50.838;12.094;2023-05-07T13:22:35;6.47;;;5.97;;
18286;SDS011;9269;50.838;12.094;2023-05-07T13:25:23;6.30;;;5.80;;
18286;SDS011;9269;50.838;12.094;2023-05-07T13:28:01;5.93;;;5.43;;
18286;SDS011;9269;50.838;12.094;2023-05-07T13:30:52;5.90;;;5.50;;
18286;SDS011;9269;50.838;12.094;2023-05-07T13:33:23;6.10;;;5.63;;
18286;SDS011;9269;50.838;12.094;2023-05-07T13:36:00;6.60;;;6.10;;
18286;SDS011;9269;50.838;12.094;2023-05-07T13:38:51;6.17;;;5.67;;
18286;SDS011;9269;50.838;12.094;2023-05-07T13:41:26;6.57;;;6.07;;
18286;SDS011;9269;50.838;12.094;2023-05-07T13:44:07;6.60;;;6.07;;
18286;SDS011;9269;50.838;12.094;2023-05-07T13:46:52;6.40;;;5.80;;
18286;SDS011;9269;50.838;12.094;2023-05-07T13:49:32;6.37;;;5.97;;
18286;SDS011;9269;50.838;12.094;2023-05-07T13:52:27;5.57;;;5.17;;
18286;SDS011;9269;50.838;12.094;2023-05-07T13:55:14;6.63;;;6.17;;
18286;SDS011;9269;50.838;12.094;2023-05-07T13:57:53;6.67;;;6.17;;
18286;SDS011;9269;50.838;12.094;2023-05-07T14:00:33;6.93;;;6.43;;
18286;SDS011;9269;50.838;12.094;2023-05-07T14:03:19;6.60;;;6.10;;
18286;SDS011;9269;50.838;12.094;2023-05-07T14:06:04;7.20;;;6.60;;
18286;SDS011;9269;50.838;12.094;2023-05-07T14:08:52;7.80;;;7.13;;
18286;SDS011;9269;50.838;12.094;2023-05-07T14:11:33;7.77;;;7.17;;
18286;SDS011;9269;50.838;12.094;2023-05-07T14:14:15;7.60;;;7.00;;
18286;SDS011;9269;50.838;12.094;2023-05-07T14:16:54;7.83;;;7.13;;
18286;SDS011;9269;50.838;12.094;2023-05-07T14:19:28;7.80;;;7.10;;
18286;SDS011;9269;50.838;12.094;2023-05-07T14:22:07;7.70;;;7.10;;
18286;SDS011;9269;50.838;12.094;2023-05-07T14:24:56;7.93;;;7.23;;
18286;SDS011;9269;50.838;12.094;2023-05-07T14:27:49;7.77;;;7.17;;
18286;SDS011;9269;50.838;12.094;2023-05-07T14:30:23;8.40;;;7.60;;
18286;SDS011;9269;50.838;12.094;2023-05-07T14:32:55;8.10;;;7.50;;
18286;SDS011;9269;50.838;12.094;2023-05-07T14:35:26;7.37;;;6.77;;
18286;SDS011;9269;50.838;12.094;2023-05-07T14:37:57;8.37;;;7.67;;
18286;SDS011;9269;50.838;12.094;2023-05-07T14:40:37;8.13;;;7.43;;
18286;SDS011;9269;50.838;12.094;2023-05-07T14:43:16;8.03;;;7.43;;
18286;SDS011;9269;50.838;12.094;2023-05-07T14:45:56;7.47;;;6.87;;
18286;SDS011;9269;50.838;12.094;2023-05-07T14:48:39;7.17;;;6.57;;
18286;SDS011;9269;50.838;12.094;2023-05-07T14:51:27;7.73;;;7.03;;
18286;SDS011;9269;50.838;12.094;2023-05-07T14:54:02;7.83;;;7.23;;
18286;SDS011;9269;50.838;12.094;2023-05-07T14:56:48;7.77;;;7.07;;
18286;SDS011;9269;50.838;12.094;2023-05-07T14:59:38;7.93;;;7.27;;
18286;SDS011;9269;50.838;12.094;2023-05-07T15:02:17;7.93;;;7.23;;
18286;SDS011;9269;50.838;12.094;2023-05-07T15:04:58;8.23;;;7.53;;
18286;SDS011;9269;50.838;12.094;2023-05-07T15:07:32;8.13;;;7.43;;
18286;SDS011;9269;50.838;12.094;2023-05-07T15:10:17;8.03;;;7.33;;
18286;SDS011;9269;50.838;12.094;2023-05-07T15:13:06;7.70;;;7.10;;
18286;SDS011;9269;50.838;12.094;2023-05-07T15:15:47;8.97;;;8.17;;
18286;SDS011;9269;50.838;12.094;2023-05-07T15:18:23;8.30;;;7.60;;
18286;SDS011;9269;50.838;12.094;2023-05-07T15:21:08;8.30;;;7.60;;
18286;SDS011;9269;50.838;12.094;2023-05-07T15:23:48;8.27;;;7.57;;
18286;SDS011;9269;50.838;12.094;2023-05-07T15:26:23;8.17;;;7.53;;
18286;SDS011;9269;50.838;12.094;2023-05-07T15:29:01;7.17;;;6.47;;
18286;SDS011;9269;50.838;12.094;2023-05-07T15:31:50;8.00;;;7.27;;
18286;SDS011;9269;50.838;12.094;2023-05-07T15:34:23;8.27;;;7.63;;
18286;SDS011;9269;50.838;12.094;2023-05-07T15:37:07;7.53;;;6.93;;
18286;SDS011;9269;50.838;12.094;2023-05-07T15:39:49;8.70;;;7.80;;
18286;SDS011;9269;50.838;12.094;2023-05-07T15:42:22;7.70;;;7.10;;